createdAt,value
2022-11-30T00:01:24.086Z,66.56
2022-11-30T00:03:56.921Z,67.47
2022-11-30T00:06:26.275Z,67.98
2022-11-30T00:08:58.086Z,67.39
2022-11-30T00:11:28.672Z,67.06
2022-11-30T00:13:56.349Z,66.90
2022-11-30T00:16:23.688Z,66.61
2022-11-30T00:18:52.140Z,66.82
2022-11-30T00:21:21.021Z,66.87
2022-11-30T00:23:50.120Z,66.39
2022-11-30T00:26:19.892Z,66.36
2022-11-30T00:28:48.508Z,67.19
2022-11-30T00:31:18.235Z,67.28
2022-11-30T00:33:47.684Z,67.58
2022-11-30T00:36:18.487Z,67.24
2022-11-30T00:38:47.274Z,67.05
2022-11-30T00:41:15.834Z,67.08
2022-11-30T00:43:43.521Z,66.60
2022-11-30T00:46:12.735Z,66.99
2022-11-30T00:48:41.652Z,66.36
2022-11-30T00:51:11.402Z,66.18
2022-11-30T00:53:40.925Z,66.31
2022-11-30T00:56:10.584Z,66.59
2022-11-30T00:58:39.264Z,66.88
2022-11-30T01:01:07.442Z,66.89
2022-11-30T01:03:36.963Z,66.66
2022-11-30T01:06:11.056Z,66.97
2022-11-30T01:08:40.484Z,67.12
2022-11-30T01:11:20.680Z,67.22
2022-11-30T01:13:48.128Z,67.27
2022-11-30T01:16:20.272Z,66.88
2022-11-30T01:18:48.636Z,66.99
2022-11-30T01:21:19.647Z,66.75
2022-11-30T01:23:47.346Z,67.50
2022-11-30T01:26:15.744Z,67.60
2022-11-30T01:28:44.532Z,67.99
2022-11-30T01:31:14.881Z,67.01
2022-11-30T01:33:43.306Z,67.54
2022-11-30T01:36:17.853Z,67.91
2022-11-30T01:38:50.149Z,67.74
2022-11-30T01:41:28.791Z,68.29
2022-11-30T01:44:08.232Z,68.43
2022-11-30T01:47:04.443Z,68.80
2022-11-30T01:49:42.236Z,68.74
2022-11-30T01:52:14.319Z,68.79
2022-11-30T01:54:51.002Z,68.23
2022-11-30T01:57:34.375Z,68.85
2022-11-30T02:00:07.471Z,68.64
2022-11-30T02:03:36.724Z,68.84
2022-11-30T02:06:04.620Z,68.40
2022-11-30T02:08:33.332Z,68.16
2022-11-30T02:11:06.926Z,68.72
2022-11-30T02:14:12.313Z,68.60
2022-11-30T02:17:03.185Z,68.86
2022-11-30T02:55:20.558Z,69.21
2022-11-30T02:57:47.934Z,68.78
2022-11-30T03:00:16.580Z,70.08
2022-11-30T03:02:43.852Z,69.76
2022-11-30T03:05:11.322Z,69.36
2022-11-30T03:07:39.327Z,69.89
2022-11-30T03:10:08.189Z,69.24
2022-11-30T03:12:35.721Z,70.08
2022-11-30T03:15:03.187Z,70.25
2022-11-30T03:17:30.401Z,69.92
2022-11-30T03:19:58.808Z,70.36
2022-11-30T03:22:26.463Z,70.42
2022-11-30T03:24:54.218Z,69.86
2022-11-30T03:27:21.637Z,70.62
2022-11-30T03:29:49.228Z,70.24
2022-11-30T03:32:17.533Z,70.29
2022-11-30T03:34:44.989Z,70.74
2022-11-30T03:37:12.335Z,70.25
2022-11-30T03:39:39.583Z,70.37
2022-11-30T03:42:06.993Z,70.31
2022-11-30T03:44:34.297Z,70.47
2022-11-30T03:47:01.413Z,70.39
2022-11-30T03:49:28.565Z,70.08
2022-11-30T03:51:56.199Z,69.96
2022-11-30T03:54:23.599Z,70.15
2022-11-30T03:56:51.059Z,70.45
2022-11-30T03:59:18.228Z,70.64
2022-11-30T04:01:46.385Z,70.24
2022-11-30T04:04:14.250Z,70.14
2022-11-30T04:06:42.280Z,70.61
2022-11-30T04:09:10.885Z,70.28
2022-11-30T04:11:38.153Z,70.63
2022-11-30T04:14:05.408Z,70.01
2022-11-30T04:16:32.604Z,70.12
2022-11-30T04:18:59.957Z,69.89
2022-11-30T04:21:27.101Z,70.61
2022-11-30T04:23:55.582Z,71.29
2022-11-30T04:26:22.762Z,70.88
2022-11-30T04:28:50.250Z,70.59
2022-11-30T04:31:17.624Z,70.14
2022-11-30T04:33:44.852Z,70.51
2022-11-30T04:36:20.657Z,70.78
2022-11-30T04:38:48.703Z,69.98
2022-11-30T04:41:16.264Z,70.54
2022-11-30T04:43:43.618Z,70.25
2022-11-30T04:46:10.934Z,70.45
2022-11-30T04:48:38.523Z,70.31
2022-11-30T04:51:08.565Z,70.02
2022-11-30T04:53:38.185Z,70.11
2022-11-30T04:56:10.960Z,69.99
2022-11-30T04:58:39.055Z,70.08
2022-11-30T05:01:06.995Z,70.25
2022-11-30T05:03:34.345Z,70.66
2022-11-30T05:06:01.959Z,71.01
2022-11-30T05:08:29.239Z,71.08
2022-11-30T05:10:56.537Z,70.75
2022-11-30T05:13:26.257Z,71.16
2022-11-30T05:15:54.071Z,70.64
2022-11-30T05:18:21.513Z,70.53
2022-11-30T05:20:52.934Z,70.58
2022-11-30T05:23:21.105Z,70.71
2022-11-30T05:25:48.824Z,70.59
2022-11-30T05:28:16.190Z,70.74
2022-11-30T05:30:44.366Z,70.99
2022-11-30T05:33:12.040Z,71.60
2022-11-30T05:35:39.385Z,71.62
2022-11-30T05:38:06.906Z,70.71
2022-11-30T05:40:34.140Z,70.97
2022-11-30T05:43:03.762Z,70.65
2022-11-30T05:45:31.629Z,70.80
2022-11-30T05:47:58.873Z,71.66
2022-11-30T05:50:26.146Z,71.54
2022-11-30T05:52:56.624Z,71.21
2022-11-30T05:55:29.174Z,70.89
2022-11-30T05:57:56.417Z,71.05
2022-11-30T06:00:23.647Z,70.53
2022-11-30T06:02:57.524Z,70.89
2022-11-30T06:05:26.306Z,71.24
2022-11-30T06:07:54.345Z,71.30
2022-11-30T06:10:22.475Z,71.52
2022-11-30T06:12:50.062Z,71.52
2022-11-30T06:15:17.299Z,71.89
2022-11-30T06:17:44.560Z,71.78
2022-11-30T06:20:12.317Z,71.05
2022-11-30T06:22:39.503Z,71.48
2022-11-30T06:25:07.060Z,71.74
2022-11-30T06:27:34.274Z,71.66
2022-11-30T06:30:01.687Z,71.69
2022-11-30T06:32:28.934Z,71.49
2022-11-30T06:34:56.184Z,71.85
2022-11-30T06:37:23.337Z,71.71
2022-11-30T06:40:05.882Z,71.52
2022-11-30T06:42:36.414Z,71.44
2022-11-30T06:45:05.008Z,71.39
2022-11-30T06:47:32.484Z,71.25
2022-11-30T06:49:59.647Z,71.29
2022-11-30T06:52:26.791Z,71.95
2022-11-30T06:54:53.907Z,71.62
2022-11-30T06:57:21.361Z,72.08
2022-11-30T06:59:48.694Z,71.95
2022-11-30T07:02:18.576Z,72.04
2022-11-30T07:04:47.229Z,71.45
2022-11-30T07:07:14.672Z,71.36
2022-11-30T07:09:41.942Z,70.71
2022-11-30T07:12:09.801Z,71.61
2022-11-30T07:14:37.128Z,71.05
2022-11-30T07:17:04.828Z,71.40
2022-11-30T07:19:34.586Z,71.20
2022-11-30T07:22:02.357Z,70.80
2022-11-30T07:24:49.909Z,71.51
2022-11-30T07:27:17.300Z,71.43
2022-11-30T07:29:44.519Z,70.59
2022-11-30T07:32:12.135Z,71.21
2022-11-30T07:34:39.345Z,70.39
2022-11-30T07:37:06.717Z,70.40
2022-11-30T07:39:33.915Z,70.35
2022-11-30T07:42:02.331Z,70.36
2022-11-30T07:44:31.247Z,70.06
2022-11-30T07:46:59.158Z,70.61
2022-11-30T07:49:26.587Z,70.29
2022-11-30T07:51:55.977Z,70.31
2022-11-30T07:54:30.166Z,70.78
2022-11-30T07:56:57.548Z,70.92
2022-11-30T07:59:24.736Z,70.69
2022-11-30T08:01:52.102Z,70.54
2022-11-30T08:04:19.724Z,70.69
2022-11-30T08:06:47.007Z,70.80
2022-11-30T08:09:59.271Z,70.03
2022-11-30T08:18:05.602Z,70.88
2022-11-30T08:20:33.715Z,69.42
2022-11-30T08:23:00.921Z,69.99
2022-11-30T08:25:32.156Z,70.79
2022-11-30T08:28:00.064Z,70.69
2022-11-30T08:30:31.061Z,70.99
2022-11-30T08:32:59.760Z,70.34
2022-11-30T08:35:26.994Z,71.00
2022-11-30T08:37:54.353Z,70.17
2022-11-30T08:40:21.767Z,70.46
2022-11-30T08:42:49.001Z,69.69
2022-11-30T08:45:16.347Z,69.49
2022-11-30T08:47:43.588Z,69.94
2022-11-30T08:50:11.180Z,69.73
2022-11-30T08:52:38.343Z,70.25
2022-11-30T08:55:06.497Z,70.26
2022-11-30T08:57:34.434Z,70.18
2022-11-30T09:00:01.702Z,70.73
2022-11-30T09:02:28.910Z,70.72
2022-11-30T09:04:56.112Z,69.69
2022-11-30T09:07:23.669Z,70.25
2022-11-30T09:10:00.366Z,69.99
2022-11-30T09:12:29.171Z,68.49
2022-11-30T09:14:58.461Z,69.29
2022-11-30T09:17:26.512Z,68.18
2022-11-30T09:19:55.030Z,68.29
2022-11-30T09:22:22.301Z,68.57
2022-11-30T09:24:49.961Z,68.37
2022-11-30T09:27:17.569Z,68.94
2022-11-30T09:29:44.854Z,68.51
2022-11-30T09:32:12.536Z,68.38
2022-11-30T09:34:39.858Z,69.08
2022-11-30T09:37:07.099Z,67.60
2022-11-30T09:39:34.263Z,68.76
2022-11-30T09:42:38.592Z,69.42
2022-11-30T09:45:19.596Z,69.61
2022-11-30T09:48:17.709Z,68.30
2022-11-30T09:50:47.481Z,68.72
2022-11-30T09:53:29.740Z,68.51
2022-11-30T09:55:59.015Z,69.04
2022-11-30T09:58:49.515Z,68.38
2022-11-30T10:01:21.981Z,68.06
2022-11-30T10:03:49.477Z,67.91
2022-11-30T10:06:57.104Z,68.66
2022-11-30T10:10:23.311Z,68.72
2022-11-30T10:12:49.257Z,69.15
2022-11-30T10:15:55.957Z,68.71
2022-11-30T10:18:53.458Z,67.47
2022-11-30T10:21:48.885Z,67.62
2022-11-30T10:24:33.425Z,66.51
2022-11-30T10:27:17.049Z,67.46
2022-11-30T10:29:45.256Z,67.42
2022-11-30T10:32:26.899Z,67.71
2022-11-30T10:35:02.665Z,67.40
2022-11-30T10:37:36.626Z,67.86
2022-11-30T10:40:22.635Z,67.16
2022-11-30T10:43:02.607Z,67.94
2022-11-30T10:45:33.578Z,67.05
2022-11-30T10:48:15.942Z,67.33
2022-11-30T10:50:43.397Z,68.18
2022-11-30T10:53:13.520Z,67.53
2022-11-30T10:55:51.437Z,67.56
2022-11-30T10:58:59.535Z,67.08
2022-11-30T11:01:35.565Z,66.87
2022-11-30T11:04:25.478Z,66.43
2022-11-30T11:06:55.177Z,65.51
2022-11-30T11:09:47.817Z,66.31
2022-11-30T11:12:25.313Z,66.19
2022-11-30T11:15:24.418Z,65.89
2022-11-30T11:17:53.903Z,64.85
2022-11-30T11:20:41.850Z,65.51
2022-11-30T11:23:35.374Z,64.77
2022-11-30T11:26:03.629Z,66.12
2022-11-30T11:28:31.369Z,65.96
2022-11-30T11:30:59.995Z,65.88
2022-11-30T11:33:29.834Z,65.57
2022-11-30T11:36:16.050Z,65.87
2022-11-30T11:38:51.022Z,65.30
2022-11-30T11:41:31.599Z,65.55
2022-11-30T11:44:10.568Z,65.22
2022-11-30T11:47:00.565Z,65.56
2022-11-30T11:49:31.852Z,66.13
2022-11-30T11:52:11.361Z,65.37
2022-11-30T11:55:03.054Z,64.50
2022-11-30T11:57:52.247Z,65.43
2022-11-30T12:00:24.974Z,65.93
2022-11-30T12:03:14.698Z,64.51
2022-11-30T12:05:46.410Z,64.08
2022-11-30T12:08:31.995Z,65.77
2022-11-30T12:11:10.522Z,64.35
2022-11-30T12:13:44.466Z,64.20
2022-11-30T12:16:29.571Z,64.98
2022-11-30T12:19:08.397Z,65.07
2022-11-30T12:22:06.712Z,65.22
2022-11-30T12:33:32.604Z,65.67
2022-11-30T12:40:03.533Z,66.47
2022-11-30T12:42:48.681Z,65.96
2022-11-30T12:48:55.034Z,65.16
2022-11-30T12:51:34.196Z,64.43
2022-11-30T12:54:35.488Z,66.70
2022-11-30T12:57:47.872Z,65.74
2022-11-30T13:00:23.296Z,65.35
2022-11-30T13:03:03.997Z,65.69
2022-11-30T13:10:49.650Z,65.42
2022-11-30T13:13:20.096Z,66.63
2022-11-30T13:15:49.707Z,65.84
2022-11-30T13:18:20.957Z,66.98
2022-11-30T13:21:08.175Z,66.42
2022-11-30T13:24:07.137Z,67.63
2022-11-30T13:27:39.456Z,67.20
2022-11-30T13:35:33.438Z,67.39
2022-11-30T13:41:33.409Z,67.79
2022-11-30T14:03:30.666Z,65.81
2022-11-30T14:17:34.628Z,66.62
2022-11-30T14:29:18.525Z,65.96
2022-11-30T14:32:38.548Z,66.81
2022-11-30T14:35:11.678Z,66.43
2022-11-30T14:37:54.755Z,65.63
2022-11-30T14:40:25.794Z,65.93
2022-11-30T14:43:01.730Z,66.08
2022-11-30T14:45:34.763Z,66.16
2022-11-30T14:48:15.389Z,66.75
2022-11-30T14:50:59.359Z,66.35
2022-11-30T14:54:03.127Z,67.27
2022-11-30T14:56:51.161Z,67.70
2022-11-30T14:59:47.533Z,66.62
2022-11-30T15:02:35.704Z,67.24
2022-11-30T15:05:09.624Z,66.67
2022-11-30T15:10:30.342Z,65.71
2022-11-30T15:13:01.845Z,66.58
2022-11-30T15:15:31.543Z,66.78
2022-11-30T15:18:18.798Z,66.95
2022-11-30T15:20:54.913Z,67.89
2022-11-30T15:26:08.266Z,67.46
2022-11-30T15:28:41.756Z,66.56
2022-11-30T15:31:15.804Z,66.84
2022-11-30T15:33:49.617Z,66.82
2022-11-30T15:36:32.554Z,67.12
2022-11-30T15:39:15.464Z,67.25
2022-11-30T15:41:44.880Z,67.73
2022-11-30T15:44:37.597Z,68.02
2022-11-30T15:47:23.232Z,68.66
2022-11-30T15:49:55.861Z,67.18
2022-11-30T15:52:29.537Z,67.27
2022-11-30T15:55:02.222Z,67.75
2022-11-30T15:58:02.629Z,67.38
2022-11-30T16:00:30.116Z,68.21
2022-11-30T16:03:13.139Z,67.46
2022-11-30T16:05:40.857Z,67.85
2022-11-30T16:08:18.890Z,69.13
2022-11-30T16:10:46.238Z,67.73
2022-11-30T16:15:52.795Z,68.76
2022-11-30T16:18:26.434Z,69.20
2022-11-30T16:21:00.958Z,68.63
2022-11-30T16:23:29.542Z,68.03
2022-11-30T16:25:57.287Z,68.47
2022-11-30T16:28:24.536Z,68.09
2022-11-30T16:30:54.121Z,68.42
2022-11-30T16:33:25.374Z,68.35
2022-11-30T16:36:02.044Z,69.24
2022-11-30T16:38:30.028Z,68.60
2022-11-30T16:41:21.649Z,67.85
2022-11-30T16:43:52.450Z,67.78
2022-11-30T16:46:26.224Z,67.56
2022-11-30T16:48:54.693Z,67.39
2022-11-30T16:51:27.533Z,67.29
2022-11-30T16:53:56.083Z,67.95
2022-11-30T16:56:24.301Z,68.04
2022-11-30T16:58:51.867Z,67.54
2022-11-30T17:01:35.942Z,67.35
2022-11-30T17:04:16.892Z,67.00
2022-11-30T17:06:48.339Z,67.60
2022-11-30T17:09:19.209Z,67.06
2022-11-30T17:12:00.224Z,68.03
2022-11-30T17:14:27.939Z,67.89
2022-11-30T17:17:01.404Z,66.92
2022-11-30T17:19:28.587Z,66.89
2022-11-30T17:21:55.769Z,66.65
2022-11-30T17:24:22.895Z,66.52
2022-11-30T17:26:50.235Z,66.97
2022-11-30T17:32:05.572Z,66.91
2022-11-30T17:34:32.702Z,67.19
2022-11-30T17:36:59.886Z,66.70
2022-11-30T17:39:27.354Z,66.75
2022-11-30T17:41:56.726Z,66.93
2022-11-30T17:44:31.695Z,66.88
2022-11-30T17:47:01.127Z,67.45
2022-11-30T17:49:28.397Z,67.23
2022-11-30T17:51:56.442Z,67.61
2022-11-30T17:54:23.703Z,66.55
2022-11-30T17:56:54.955Z,67.09
2022-11-30T17:59:22.534Z,66.88
2022-11-30T18:04:25.646Z,66.38
2022-11-30T18:09:25.254Z,66.85
2022-11-30T18:11:53.187Z,67.17
2022-11-30T18:14:20.780Z,66.84
2022-11-30T18:16:48.519Z,66.95
2022-11-30T18:19:22.013Z,67.04
2022-11-30T18:21:50.227Z,67.17
2022-11-30T18:24:21.201Z,66.92
2022-11-30T18:29:35.658Z,66.48
2022-11-30T18:32:02.984Z,66.87
2022-11-30T18:34:30.259Z,66.71
2022-11-30T18:36:57.544Z,67.30
2022-11-30T18:39:25.196Z,66.99
2022-11-30T18:42:09.789Z,66.48
2022-11-30T18:44:37.437Z,66.89
2022-11-30T18:47:04.945Z,67.76
2022-11-30T18:49:41.208Z,66.98
2022-11-30T18:52:08.644Z,66.65
2022-11-30T18:54:40.940Z,66.77
2022-11-30T19:00:08.685Z,66.60
2022-11-30T19:20:07.667Z,66.96
2022-11-30T19:22:34.964Z,66.74
2022-11-30T19:25:02.414Z,66.67
2022-11-30T19:27:29.609Z,66.78
2022-11-30T19:29:56.796Z,66.61
2022-11-30T19:32:24.044Z,66.55
2022-11-30T19:34:51.351Z,66.27
2022-11-30T19:37:18.519Z,66.38
2022-11-30T19:39:45.755Z,66.73
2022-11-30T19:42:12.925Z,66.40
2022-11-30T19:44:40.710Z,66.66
2022-11-30T19:47:08.011Z,66.69
2022-11-30T19:49:35.847Z,66.17
2022-11-30T19:52:03.301Z,66.14
2022-11-30T19:54:30.505Z,66.44
2022-11-30T19:56:59.304Z,66.17
2022-11-30T19:59:26.633Z,65.74
2022-11-30T20:01:53.956Z,65.65
2022-11-30T20:04:21.240Z,65.06
2022-11-30T20:06:48.513Z,64.92
2022-11-30T20:09:15.853Z,65.28
2022-11-30T20:11:43.453Z,64.81
2022-11-30T20:14:17.104Z,64.16
2022-11-30T20:16:44.430Z,65.37
2022-11-30T20:19:11.814Z,64.51
2022-11-30T20:21:39.047Z,64.68
2022-11-30T20:24:11.735Z,64.81
2022-11-30T20:26:42.811Z,64.84
2022-11-30T20:29:16.219Z,64.87
2022-11-30T20:31:46.380Z,65.23
2022-11-30T20:34:13.813Z,65.41
2022-11-30T20:36:41.002Z,65.04
2022-11-30T20:39:10.389Z,64.86
2022-11-30T20:41:37.780Z,65.06
2022-11-30T20:44:05.272Z,64.84
2022-11-30T20:46:35.694Z,64.79
2022-11-30T20:49:11.075Z,64.93
2022-11-30T20:51:38.403Z,64.90
2022-11-30T20:54:07.262Z,65.16
2022-11-30T20:56:37.299Z,65.40
2022-11-30T20:59:09.305Z,64.91
2022-11-30T21:01:36.615Z,64.61
2022-11-30T21:04:04.349Z,64.49
2022-11-30T21:06:32.350Z,64.68
2022-11-30T21:09:00.399Z,64.88
2022-11-30T21:11:29.614Z,64.37
2022-11-30T21:13:58.571Z,64.93
2022-11-30T21:16:29.716Z,65.00
2022-11-30T21:18:59.627Z,64.78
2022-11-30T21:21:33.273Z,65.01
2022-11-30T21:24:07.405Z,65.40
2022-11-30T21:26:43.750Z,65.55
2022-11-30T21:29:14.782Z,65.25
2022-11-30T21:31:43.392Z,65.63
2022-11-30T21:34:10.769Z,64.85
2022-11-30T21:36:38.292Z,65.44
2022-11-30T21:39:08.722Z,65.47
2022-11-30T21:41:39.253Z,65.99
2022-11-30T21:44:14.302Z,65.45
2022-11-30T21:46:42.673Z,66.33
2022-11-30T21:49:10.137Z,65.99
2022-11-30T21:51:37.969Z,65.89
2022-11-30T21:54:15.042Z,66.40
2022-11-30T21:59:29.080Z,66.25
2022-11-30T22:01:56.991Z,65.96
2022-11-30T22:04:24.275Z,65.75
2022-11-30T22:06:51.979Z,66.24
2022-11-30T22:09:19.437Z,65.99
2022-11-30T22:11:47.279Z,66.17
2022-11-30T22:14:17.703Z,65.85
2022-11-30T22:16:45.932Z,66.04
2022-11-30T22:19:13.935Z,66.81
2022-11-30T22:21:55.116Z,65.80
2022-11-30T22:24:22.454Z,65.99
2022-11-30T22:26:50.293Z,66.30
2022-11-30T22:29:22.947Z,66.31
2022-11-30T22:35:03.173Z,66.37
2022-11-30T22:43:10.065Z,66.55
2022-11-30T22:45:55.235Z,66.58
2022-11-30T22:51:25.298Z,66.76
2022-11-30T22:53:54.490Z,67.06
2022-11-30T22:56:30.216Z,66.82
2022-11-30T23:01:49.074Z,67.27
2022-11-30T23:07:26.266Z,66.79
2022-11-30T23:12:58.967Z,66.71
2022-11-30T23:31:53.301Z,67.01
2022-11-30T23:34:30.383Z,66.90
2022-11-30T23:37:12.780Z,67.06
2022-11-30T23:39:42.727Z,66.65
2022-11-30T23:42:18.159Z,66.66
2022-11-30T23:47:31.789Z,66.27
2022-11-30T23:50:07.035Z,66.21
2022-11-30T23:52:45.381Z,66.77
2022-11-30T23:55:13.248Z,66.68
